createdAt,value
2023-01-29T05:02:56.780Z,3.30
2023-01-29T05:07:11.994Z,3.60
2023-01-29T05:11:25.117Z,3.80
2023-01-29T05:15:45.276Z,3.13
2023-01-29T05:19:57.167Z,3.33
2023-01-29T05:24:18.971Z,3.10
2023-01-29T05:28:30.675Z,3.47
2023-01-29T05:32:42.112Z,3.47
2023-01-29T05:36:53.613Z,3.40
2023-01-29T05:41:05.400Z,3.97
2023-01-29T05:45:18.605Z,3.90
2023-01-29T05:49:30.121Z,4.10
2023-01-29T05:53:41.600Z,3.63
2023-01-29T05:57:53.057Z,3.87
2023-01-29T06:02:04.586Z,4.17
2023-01-29T06:06:16.951Z,4.90
2023-01-29T06:10:28.423Z,4.40
2023-01-29T06:14:39.856Z,4.73
2023-01-29T06:18:51.285Z,5.40
2023-01-29T06:23:02.807Z,5.40
2023-01-29T06:27:14.528Z,5.03
2023-01-29T06:31:38.488Z,5.40
2023-01-29T06:35:56.006Z,4.57
2023-01-29T06:40:08.302Z,5.10
2023-01-29T06:44:19.858Z,7.00
2023-01-29T06:48:31.405Z,5.73
2023-01-29T06:52:42.847Z,5.00
2023-01-29T06:56:54.346Z,4.57
2023-01-29T07:01:11.711Z,4.70
2023-01-29T07:05:25.310Z,4.80
2023-01-29T07:09:36.761Z,5.63
2023-01-29T07:13:48.209Z,6.27
2023-01-29T07:18:01.583Z,6.93
2023-01-29T07:22:13.209Z,9.40
2023-01-29T07:26:24.756Z,6.47
2023-01-29T07:30:42.118Z,5.73
2023-01-29T07:34:53.768Z,5.27
2023-01-29T07:39:05.353Z,5.10
2023-01-29T07:43:17.055Z,6.53
2023-01-29T07:47:28.517Z,6.77
2023-01-29T07:51:40.093Z,7.17
2023-01-29T07:55:51.657Z,22.30
2023-01-29T08:00:03.446Z,16.27
2023-01-29T08:04:23.750Z,10.30
2023-01-29T08:08:35.271Z,6.80
2023-01-29T08:12:46.888Z,6.70
2023-01-29T08:16:58.398Z,4.77
2023-01-29T08:21:10.343Z,5.90
2023-01-29T08:25:23.177Z,6.37
2023-01-29T08:29:35.184Z,7.10
2023-01-29T08:33:47.146Z,8.83
2023-01-29T08:38:01.303Z,8.63
2023-01-29T08:42:12.853Z,9.77
2023-01-29T08:46:24.409Z,10.23
2023-01-29T08:50:36.844Z,10.57
2023-01-29T08:54:48.418Z,11.33
2023-01-29T08:58:59.976Z,8.27
2023-01-29T09:03:11.460Z,12.20
2023-01-29T09:07:22.975Z,11.17
2023-01-29T09:11:34.463Z,12.00
2023-01-29T09:15:46.532Z,20.43
2023-01-29T09:19:58.685Z,14.90
2023-01-29T09:24:10.786Z,8.00
2023-01-29T09:28:22.320Z,5.60
2023-01-29T09:32:52.758Z,6.30
2023-01-29T09:37:05.017Z,5.80
2023-01-29T09:41:56.363Z,5.03
2023-01-29T09:46:18.042Z,4.93
2023-01-29T09:50:40.957Z,5.27
2023-01-29T09:55:10.999Z,6.00
2023-01-29T09:59:25.062Z,3.77
2023-01-29T10:03:51.753Z,4.40
2023-01-29T10:08:20.235Z,4.27
2023-01-29T10:12:52.158Z,4.23
2023-01-29T10:17:35.584Z,4.07
2023-01-29T10:22:00.709Z,4.03
2023-01-29T10:26:13.464Z,3.47
2023-01-29T10:30:40.277Z,3.63
2023-01-29T10:35:02.946Z,4.50
2023-01-29T10:39:26.012Z,3.80
2023-01-29T10:44:05.430Z,4.50
2023-01-29T10:48:35.345Z,4.93
2023-01-29T10:53:27.423Z,5.17
2023-01-29T10:58:02.742Z,5.20
2023-01-29T11:02:18.031Z,4.60
2023-01-29T11:06:32.504Z,3.90
2023-01-29T11:10:55.860Z,4.47
2023-01-29T11:15:28.359Z,3.90
2023-01-29T11:19:45.970Z,4.53
2023-01-29T11:24:17.537Z,4.20
2023-01-29T11:28:40.812Z,4.30
2023-01-29T11:33:19.472Z,4.30
2023-01-29T11:37:40.263Z,4.40
2023-01-29T11:42:00.644Z,4.13
2023-01-29T11:46:15.486Z,3.97
2023-01-29T11:50:33.464Z,4.50
2023-01-29T11:54:58.758Z,4.70
2023-01-29T11:59:25.931Z,3.97
2023-01-29T12:03:43.749Z,4.53
2023-01-29T12:07:59.895Z,4.10
2023-01-29T12:12:28.640Z,4.17
2023-01-29T12:16:48.747Z,3.77
2023-01-29T12:21:26.889Z,3.80
2023-01-29T12:26:05.017Z,4.07
2023-01-29T12:30:25.768Z,4.53
2023-01-29T12:34:48.338Z,4.83
2023-01-29T12:39:00.004Z,4.90
2023-01-29T12:43:21.112Z,4.80
2023-01-29T12:47:43.784Z,5.00
2023-01-29T12:52:07.459Z,4.77
2023-01-29T12:56:39.579Z,5.03
2023-01-29T13:00:56.693Z,6.10
2023-01-29T13:05:30.991Z,6.97
2023-01-29T13:09:50.656Z,5.00
2023-01-29T13:14:13.630Z,4.93
2023-01-29T13:18:47.821Z,5.47
2023-01-29T13:23:12.801Z,5.37
2023-01-29T13:27:27.724Z,5.00
2023-01-29T13:31:41.105Z,5.80
2023-01-29T13:35:59.372Z,5.53
2023-01-29T13:40:25.660Z,5.10
2023-01-29T13:44:39.869Z,5.53
2023-01-29T13:48:54.582Z,5.17
2023-01-29T13:53:08.782Z,5.33
2023-01-29T13:57:33.952Z,5.60
2023-01-29T14:01:48.520Z,5.13
2023-01-29T14:06:01.043Z,7.97
2023-01-29T14:10:22.874Z,8.40
2023-01-29T14:15:05.634Z,6.50
2023-01-29T14:19:19.121Z,6.07
2023-01-29T14:23:36.608Z,5.23
2023-01-29T14:27:49.188Z,5.10
2023-01-29T14:32:06.655Z,5.83
2023-01-29T14:36:18.267Z,6.10
2023-01-29T14:40:31.021Z,5.63
2023-01-29T14:44:45.645Z,6.10
2023-01-29T14:48:57.155Z,5.57
2023-01-29T14:53:24.202Z,5.80
2023-01-29T14:57:36.727Z,5.87
2023-01-29T15:01:54.690Z,6.03
2023-01-29T15:06:09.772Z,5.93
2023-01-29T15:10:48.043Z,6.07
2023-01-29T15:15:06.146Z,6.60
2023-01-29T15:19:29.433Z,6.73
2023-01-29T15:23:41.285Z,6.83
2023-01-29T15:27:56.648Z,7.20
2023-01-29T15:32:31.168Z,7.10
2023-01-29T15:36:42.747Z,6.43
2023-01-29T15:41:00.174Z,6.70
2023-01-29T15:45:22.787Z,6.60
2023-01-29T15:49:39.391Z,8.30
2023-01-29T15:53:54.740Z,10.07
2023-01-29T15:58:13.541Z,7.37
2023-01-29T16:02:45.350Z,6.73
2023-01-29T16:06:58.817Z,7.27
2023-01-29T16:11:10.669Z,8.03
2023-01-29T16:15:32.887Z,8.43
2023-01-29T16:19:44.342Z,8.30
2023-01-29T16:23:59.119Z,8.50
2023-01-29T16:28:11.111Z,8.50
2023-01-29T16:32:22.824Z,8.37
2023-01-29T16:36:34.828Z,8.30
2023-01-29T16:41:07.030Z,8.90
2023-01-29T16:45:30.612Z,9.20
2023-01-29T16:49:49.630Z,8.70
2023-01-29T16:54:13.501Z,9.07
2023-01-29T16:58:28.084Z,8.93
2023-01-29T17:02:39.854Z,10.10
2023-01-29T17:06:57.655Z,10.03
2023-01-29T17:11:11.549Z,10.57
2023-01-29T17:15:44.763Z,9.80
2023-01-29T17:19:57.621Z,10.70
2023-01-29T17:24:09.116Z,8.97
2023-01-29T17:28:20.574Z,9.17
2023-01-29T17:32:42.242Z,8.80
2023-01-29T17:36:57.209Z,9.27
2023-01-29T17:41:15.702Z,10.57
2023-01-29T17:45:27.526Z,11.57
2023-01-29T17:49:39.059Z,10.87
2023-01-29T17:53:50.511Z,10.80
2023-01-29T17:58:01.939Z,10.30
2023-01-29T18:02:28.831Z,11.87
2023-01-29T18:06:42.488Z,11.40
2023-01-29T18:10:53.946Z,11.07
2023-01-29T18:15:05.823Z,10.20
2023-01-29T18:19:23.180Z,9.97
2023-01-29T18:23:34.676Z,9.83
2023-01-29T18:27:46.231Z,10.83
2023-01-29T18:31:57.968Z,9.90
2023-01-29T18:36:09.527Z,12.57
2023-01-29T18:40:20.979Z,11.83
2023-01-29T18:44:32.516Z,11.97
2023-01-29T18:48:44.115Z,15.20
2023-01-29T18:52:55.590Z,20.30
2023-01-29T18:57:14.647Z,13.40
2023-01-29T19:01:27.294Z,14.00
2023-01-29T19:05:38.805Z,17.03
2023-01-29T19:09:50.422Z,14.70
2023-01-29T19:14:01.843Z,16.10
2023-01-29T19:18:14.680Z,14.33
2023-01-29T19:22:26.335Z,21.03
2023-01-29T19:26:37.838Z,20.23
2023-01-29T19:30:49.392Z,27.13
2023-01-29T19:35:00.894Z,19.43
2023-01-29T19:39:12.549Z,15.03
2023-01-29T19:43:24.068Z,15.73
2023-01-29T19:47:41.044Z,13.47
2023-01-29T19:51:52.745Z,12.23
2023-01-29T19:56:11.053Z,12.27
2023-01-29T20:00:22.532Z,11.90
2023-01-29T20:04:34.202Z,12.03
2023-01-29T20:08:46.596Z,11.37
2023-01-29T20:12:58.035Z,11.53
2023-01-29T20:17:09.484Z,12.10
2023-01-29T20:21:21.992Z,12.67
2023-01-29T20:25:35.536Z,12.37
2023-01-29T20:29:47.017Z,12.50
2023-01-29T20:33:58.458Z,12.77
2023-01-29T20:38:09.893Z,12.70
2023-01-29T20:42:21.365Z,13.13
2023-01-29T20:46:35.076Z,14.03
2023-01-29T20:50:46.539Z,15.60
2023-01-29T20:54:57.983Z,16.77
2023-01-29T20:59:09.499Z,14.30
2023-01-29T21:03:21.114Z,12.90
2023-01-29T21:07:32.898Z,13.63
2023-01-29T21:11:47.258Z,13.70
2023-01-29T21:15:59.095Z,11.83
2023-01-29T21:20:11.127Z,12.53
2023-01-29T21:24:22.613Z,10.93
2023-01-29T21:28:34.541Z,12.10
2023-01-29T21:32:46.178Z,11.13
2023-01-29T21:36:57.738Z,11.97
2023-01-29T21:41:09.639Z,13.57
2023-01-29T21:45:21.333Z,13.50
2023-01-29T21:49:32.791Z,12.20
2023-01-29T21:53:44.254Z,12.70
2023-01-29T21:57:55.825Z,12.77
2023-01-29T22:02:13.812Z,13.50
2023-01-29T22:06:25.510Z,11.07
2023-01-29T22:10:37.587Z,13.50
2023-01-29T22:14:49.508Z,12.73
2023-01-29T22:19:01.019Z,12.10
2023-01-29T22:23:12.722Z,12.00
2023-01-29T22:27:25.285Z,11.87
